Terminal Aerodrome Forecast
Issued by NWS

Home | Current Version | Previous Version | Text Only | Print | Product List | Glossary On
Versions: 1 2 3 4 5 6 7 8 9 10 11 12 13 14 15 16 17 18 19 20 21 22 23 24 25 26 27 28 29 30
000
FTUS43 KDDC 231736
TAFGCK
TAF
KGCK 231736Z 2318/2418 16012G20KT P6SM SCT250
     FM232000 23017G29KT P6SM SCT200
     FM240000 29019G27KT P6SM FEW250
     FM240600 33018G26KT P6SM FEW050=

USA.gov is the U.S. government's official web portal to all federal, state and local government web resources and services.